Search for airport 
image banner adimage banner adimage banner ad
image banner ad

C27 - Manchester Muni

Located in Manchester, United States

ICAO - C27, IATA -

Data provided by Airmate  

General information

Coordinates: N42°29'26" W91°29'52"
Elevation is 987 feet MSL.
Magnetic variation is 02° East
View others Airports in Iowa

Operational data

Special qualification required
Current time UTC:
Current local time:
Weather at : KIIB - Independence Muni ( 37 km )
METAR: KIIB 181715Z AUTO 12006KT 10SM CLR 32/12 A2983 RMK AO2 T03180118
View NOTAMs / SUP AIP / TFR affecting this airport [VIEW]
Communications frequencies: [VIEW]

Runways:

RWY identifierQFULength (ft)Width (ft)SurfaceLDA (ft)
18346550ASPH
36346550ASPH

Airport contact information

Address: Manchester United States

Satellite view of C27